createdAt,value
2023-04-17T00:00:01.675Z,5.21
2023-04-17T00:15:02.136Z,5.9
2023-04-17T00:30:01.775Z,4.96
2023-04-17T00:45:02.126Z,5.19
2023-04-17T01:00:01.371Z,5
2023-04-17T01:15:02.147Z,5.1
2023-04-17T01:30:01.451Z,5.1
2023-04-17T01:45:02.179Z,5.5
2023-04-17T02:00:02.190Z,5.5
2023-04-17T02:15:02.110Z,5.26
2023-04-17T02:30:01.759Z,5.7
2023-04-17T02:45:02.174Z,5.13
2023-04-17T03:00:01.557Z,5.7
2023-04-17T03:15:02.190Z,5.15
2023-04-17T03:30:01.354Z,5.1
2023-04-17T03:45:02.191Z,5.11
2023-04-17T04:00:02.014Z,5.17
2023-04-17T04:15:02.172Z,5.1
2023-04-17T04:30:03.123Z,5.5
2023-04-17T04:45:02.115Z,5.21
2023-04-17T05:00:02.328Z,5.23
2023-04-17T05:15:02.162Z,5.5
2023-04-17T05:30:01.750Z,5.8
2023-04-17T05:45:02.141Z,6.73
2023-04-17T06:00:01.357Z,6.82
2023-04-17T06:15:01.632Z,6.94
2023-04-17T06:30:02.212Z,6.94
2023-04-17T06:45:02.697Z,6.94
2023-04-17T07:00:01.546Z,6.94
2023-04-17T07:15:02.164Z,6.94
2023-04-17T07:30:02.295Z,6.94
2023-04-17T07:45:02.830Z,6.94
2023-04-17T08:00:03.322Z,6.94
2023-04-17T08:15:01.917Z,6.94
2023-04-17T08:30:02.217Z,6.94
2023-04-17T08:45:02.740Z,6.94
2023-04-17T09:00:02.014Z,6.94
2023-04-17T09:15:01.732Z,6.94
2023-04-17T09:30:02.171Z,6.94
2023-04-17T09:45:01.408Z,6.94
2023-04-17T10:00:02.678Z,6.94
2023-04-17T10:15:02.268Z,6.94
2023-04-17T10:30:02.160Z,6.94
2023-04-17T10:45:01.982Z,19.73
2023-04-17T11:00:01.867Z,16.28
2023-04-17T11:15:03.062Z,16.28
2023-04-17T11:30:01.474Z,16.28
2023-04-17T11:45:03.689Z,16.28
2023-04-17T12:00:02.094Z,17.78
2023-04-17T12:15:02.411Z,17.78
2023-04-17T12:30:01.337Z,17.78
2023-04-17T12:45:01.677Z,17.78
2023-04-17T13:00:02.033Z,17.78
2023-04-17T13:15:02.575Z,17.78
2023-04-17T13:30:01.836Z,17.78
2023-04-17T13:45:02.224Z,17.78
2023-04-17T14:00:02.023Z,17.78
2023-04-17T14:15:02.457Z,17.78
2023-04-17T14:30:01.737Z,17.78
2023-04-17T14:45:01.672Z,17.78
2023-04-17T15:00:02.060Z,17.78
2023-04-17T15:15:02.443Z,17.78
2023-04-17T15:30:03.039Z,17.78
2023-04-17T15:45:01.433Z,17.78
2023-04-17T16:00:01.914Z,17.78
2023-04-17T16:15:02.353Z,17.78
2023-04-17T16:30:01.580Z,17.78
2023-04-17T16:45:02.000Z,17.78
2023-04-17T17:00:02.284Z,17.78
2023-04-17T17:15:02.425Z,17.78
2023-04-17T17:30:01.713Z,17.78
2023-04-17T17:45:01.997Z,17.78
2023-04-17T18:00:01.921Z,17.78
2023-04-17T18:15:02.343Z,17.78
2023-04-17T18:30:02.961Z,17.78
2023-04-17T18:45:01.422Z,17.78
2023-04-17T19:00:01.779Z,17.78
2023-04-17T19:15:02.253Z,17.78
2023-04-17T19:30:01.383Z,17.78
2023-04-17T19:45:01.773Z,17.78
2023-04-17T20:00:02.066Z,17.78
2023-04-17T20:15:02.267Z,17.78
2023-04-17T20:30:01.676Z,7.28
2023-04-17T20:45:02.451Z,6.9
2023-04-17T21:00:01.553Z,7.13
2023-04-17T21:15:02.476Z,6.98
2023-04-17T21:30:01.581Z,6.84
2023-04-17T21:45:02.493Z,6.79
2023-04-17T22:00:02.059Z,6.53
2023-04-17T22:15:01.472Z,6.21
2023-04-17T22:30:01.824Z,5.86
2023-04-17T22:45:02.531Z,6.3
2023-04-17T23:00:01.617Z,6.26
2023-04-17T23:15:02.575Z,6.17
2023-04-17T23:30:01.686Z,6.17
2023-04-17T23:45:02.653Z,6.4
